Time,TemperatureF,DewpointF,PressureIn,WindDirection,WindDirectionDegrees,WindSpeedMPH,WindSpeedGustMPH,Humidity,HourlyPrecipIn,Conditions,Clouds,dailyrainin,SoftwareType,DateUTC
2013-01-16 00:29:00,43.9,17.4,30.27,NE,53,11.0,31.0,34,0.00,,,0.00,VWS V14.01,2013-01-16 08:29:00,
2013-01-16 00:59:00,44.3,17.7,30.27,East,84,2.0,36.0,34,0.00,,,0.00,VWS V14.01,2013-01-16 08:59:00,
2013-01-16 01:29:00,46.1,18.6,30.27,NE,54,0.0,32.0,33,0.00,,,0.00,VWS V14.01,2013-01-16 09:29:00,
2013-01-16 01:59:00,47.4,18.3,30.27,WSW,249,1.0,20.0,31,0.00,,,0.00,VWS V14.01,2013-01-16 09:59:00,
2013-01-16 02:29:00,46.1,19.3,30.29,SE,138,0.0,17.0,34,0.00,,,0.00,VWS V14.01,2013-01-16 10:29:00,
2013-01-16 02:59:00,47.6,19.2,30.28,NNE,29,0.0,14.0,32,0.00,,,0.00,VWS V14.01,2013-01-16 10:59:00,
2013-01-16 03:29:00,46.5,19.7,30.29,East,100,6.0,21.0,34,0.00,,,0.00,VWS V14.01,2013-01-16 11:29:00,
2013-01-16 03:59:00,45.8,19.0,30.27,NW,314,6.0,17.0,34,0.00,,,0.00,VWS V14.01,2013-01-16 11:59:00,
2013-01-16 04:29:00,44.9,19.6,30.27,NNE,33,0.0,7.0,36,0.00,,,0.00,VWS V14.01,2013-01-16 12:29:00,
2013-01-16 04:59:00,45.3,19.9,30.27,WNW,301,0.0,14.0,36,0.00,,,0.00,VWS V14.01,2013-01-16 12:59:00,
2013-01-16 05:29:00,45.7,19.6,30.27,SSE,149,3.0,17.0,35,0.00,,,0.00,VWS V14.01,2013-01-16 13:29:00,
2013-01-16 05:59:00,46.0,19.9,30.26,East,94,3.0,16.0,35,0.00,,,0.00,VWS V14.01,2013-01-16 13:59:00,
2013-01-16 06:29:00,47.2,20.3,30.27,West,275,0.0,18.0,34,0.00,,,0.00,VWS V14.01,2013-01-16 14:29:00,
2013-01-16 06:59:00,47.3,20.4,30.26,East,87,13.0,25.0,34,0.00,,,0.00,VWS V14.01,2013-01-16 14:59:00,
2013-01-16 07:29:00,46.5,20.3,30.26,East,89,13.0,24.0,35,0.00,,,0.00,VWS V14.01,2013-01-16 15:29:00,
2013-01-16 07:59:00,46.8,20.6,30.27,ENE,73,2.0,15.0,35,0.00,,,0.00,VWS V14.01,2013-01-16 15:59:00,
2013-01-16 08:29:00,48.3,20.5,30.26,SSE,147,1.0,23.0,33,0.00,,,0.00,VWS V14.01,2013-01-16 16:29:00,
2013-01-16 08:59:00,53.0,23.2,30.26,NE,35,8.0,22.0,31,0.00,,,0.00,VWS V14.01,2013-01-16 16:59:00,
2013-01-16 09:29:00,55.0,23.4,30.27,ESE,103,5.0,26.0,29,0.00,,,0.00,VWS V14.01,2013-01-16 17:29:00,
2013-01-16 09:59:00,55.1,23.4,30.25,East,94,9.0,22.0,29,0.00,,,0.00,VWS V14.01,2013-01-16 17:59:00,
2013-01-16 10:29:00,58.0,24.2,30.24,NW,316,5.0,19.0,27,0.00,,,0.00,VWS V14.01,2013-01-16 18:29:00,
2013-01-16 10:59:00,57.8,24.9,30.22,NE,56,14.0,28.0,28,0.00,,,0.00,VWS V14.01,2013-01-16 18:59:00,
2013-01-16 11:29:00,60.2,25.2,30.20,East,93,0.0,25.0,26,0.00,,,0.00,VWS V14.01,2013-01-16 19:29:00,
2013-01-16 11:59:00,61.4,26.2,30.18,SSE,168,0.0,22.0,26,0.00,,,0.00,VWS V14.01,2013-01-16 19:59:00,
2013-01-16 12:29:00,58.8,23.1,30.17,ESE,102,15.0,23.0,25,0.00,,,0.00,VWS V14.01,2013-01-16 20:29:00,
2013-01-16 12:59:00,56.7,22.2,30.16,East,98,10.0,27.0,26,0.00,,,0.00,VWS V14.01,2013-01-16 20:59:00,
2013-01-16 13:29:00,55.6,21.3,30.15,ESE,115,22.0,30.0,26,0.00,,,0.00,VWS V14.01,2013-01-16 21:29:00,
2013-01-16 13:59:00,54.7,21.4,30.13,East,89,18.0,32.0,27,0.00,,,0.00,VWS V14.01,2013-01-16 21:59:00,
2013-01-16 14:29:00,56.3,21.0,30.15,ESE,102,10.0,30.0,25,0.00,,,0.00,VWS V14.01,2013-01-16 22:29:00,
2013-01-16 14:59:00,54.3,21.0,30.12,South,172,15.0,22.0,27,0.00,,,0.00,VWS V14.01,2013-01-16 22:59:00,
2013-01-16 15:29:00,57.1,21.6,30.11,NE,36,0.0,26.0,25,0.00,,,0.00,VWS V14.01,2013-01-16 23:29:00,
2013-01-16 15:59:00,55.9,21.5,30.10,WNW,295,2.0,28.0,26,0.00,,,0.00,VWS V14.01,2013-01-16 23:59:00,
2013-01-16 16:29:00,54.3,21.0,30.08,NNW,342,7.0,36.0,27,0.00,,,0.00,VWS V14.01,2013-01-17 00:29:00,
2013-01-16 16:59:00,52.8,20.6,30.08,WSW,243,3.0,42.0,28,0.00,,,0.00,VWS V14.01,2013-01-17 00:59:00,
2013-01-16 17:29:00,52.2,20.1,30.09,NE,48,4.0,34.0,28,0.00,,,0.00,VWS V14.01,2013-01-17 01:29:00,
2013-01-16 17:59:00,51.9,19.8,30.09,North,4,7.0,44.0,28,0.00,,,0.00,VWS V14.01,2013-01-17 01:59:00,
2013-01-16 18:29:00,52.1,19.2,30.08,NE,37,11.0,45.0,27,0.00,,,0.00,VWS V14.01,2013-01-17 02:29:00,
2013-01-16 18:59:00,52.8,19.8,30.08,NE,51,9.0,38.0,27,0.00,,,0.00,VWS V14.01,2013-01-17 02:59:00,
2013-01-16 19:29:00,52.4,19.4,30.07,East,79,30.0,45.0,27,0.00,,,0.00,VWS V14.01,2013-01-17 03:29:00,
2013-01-16 19:59:00,52.6,18.7,30.07,ENE,62,16.0,47.0,26,0.00,,,0.00,VWS V14.01,2013-01-17 03:59:00,
2013-01-16 20:29:00,52.3,19.3,30.06,East,82,29.0,43.0,27,0.00,,,0.00,VWS V14.01,2013-01-17 04:29:00,
2013-01-16 20:59:00,52.7,18.8,30.05,East,90,47.0,47.0,26,0.00,,,0.00,VWS V14.01,2013-01-17 04:59:00,
2013-01-16 21:29:00,53.0,18.1,30.04,ENE,66,7.0,48.0,25,0.00,,,0.00,VWS V14.01,2013-01-17 05:29:00,
2013-01-16 21:59:00,52.6,17.8,30.04,East,85,27.0,49.0,25,0.00,,,0.00,VWS V14.01,2013-01-17 05:59:00,
2013-01-16 22:29:00,53.0,17.2,30.04,ENE,71,22.0,45.0,24,0.00,,,0.00,VWS V14.01,2013-01-17 06:29:00,
2013-01-16 22:59:00,53.0,18.1,30.04,East,96,37.0,46.0,25,0.00,,,0.00,VWS V14.01,2013-01-17 06:59:00,
2013-01-16 23:29:00,52.8,18.0,30.05,ENE,72,35.0,48.0,25,0.00,,,0.00,VWS V14.01,2013-01-17 07:29:00,
2013-01-16 23:59:00,53.2,18.3,30.04,ENE,75,31.0,46.0,25,0.00,,,0.00,VWS V14.01,2013-01-17 07:59:00,